Time;durP1;ratioP1;P1;durP2;ratioP2;P2;SDS_P1;SDS_P2;PMS_P1;PMS_P2;Temp;Humidity;BMP_temperature;BMP_pressure;BME280_temperature;BME280_humidity;BME280_pressure;Samples;Min_cycle;Max_cycle;Signal;HPM_P1;HPM_P2
2022/03/21 00:00:00;;;;;;;7.43;4.40;;;;;;;;;;4928511;29;20682;-62
2022/03/21 00:02:28;;;;;;;5.27;4.17;;;;;;;;;;4927683;29;20250;-62
2022/03/21 00:04:55;;;;;;;6.60;4.50;;;;;;;;;;4927541;29;20211;-63
2022/03/21 00:07:22;;;;;;;6.33;4.93;;;;;;;;;;4927625;29;20212;-63
2022/03/21 00:09:49;;;;;;;5.63;4.47;;;;;;;;;;4927650;29;20218;-62
2022/03/21 00:12:18;;;;;;;6.87;4.97;;;;;;;;;;4927733;29;20216;-61
2022/03/21 00:14:46;;;;;;;7.07;4.73;;;;;;;;;;4926868;29;20212;-60
2022/03/21 00:17:13;;;;;;;4.50;4.03;;;;;;;;;;4927747;29;20637;-60
2022/03/21 00:19:42;;;;;;;7.27;4.37;;;;;;;;;;4927140;29;20382;-62
2022/03/21 00:22:09;;;;;;;6.20;4.50;;;;;;;;;;4927255;29;20212;-63
2022/03/21 00:24:38;;;;;;;5.83;4.10;;;;;;;;;;4927651;29;20211;-63
2022/03/21 00:27:08;;;;;;;5.37;4.30;;;;;;;;;;4927223;29;20212;-62
2022/03/21 00:29:35;;;;;;;9.73;5.10;;;;;;;;;;4927400;29;20709;-62
2022/03/21 00:32:05;;;;;;;7.63;4.60;;;;;;;;;;4927848;29;20326;-62
2022/03/21 00:34:32;;;;;;;8.30;4.67;;;;;;;;;;4927082;29;20232;-62
2022/03/21 00:37:01;;;;;;;8.97;4.77;;;;;;;;;;4927324;29;20262;-62
2022/03/21 00:39:28;;;;;;;6.80;5.17;;;;;;;;;;4924771;29;20219;-62
2022/03/21 00:41:55;;;;;;;12.73;6.93;;;;;;;;;;4926404;29;20206;-62
2022/03/21 00:44:22;;;;;;;16.10;8.67;;;;;;;;;;4926691;29;20746;-60
2022/03/21 00:46:49;;;;;;;14.20;7.17;;;;;;;;;;4926962;29;20203;-61
2022/03/21 00:49:16;;;;;;;7.60;5.53;;;;;;;;;;4926846;29;20764;-61
2022/03/21 00:51:43;;;;;;;8.03;5.53;;;;;;;;;;4926840;29;20287;-61
2022/03/21 00:54:11;;;;;;;10.90;6.43;;;;;;;;;;4926797;29;20222;-61
2022/03/21 00:56:38;;;;;;;14.27;7.33;;;;;;;;;;4926700;29;20690;-61
2022/03/21 00:59:05;;;;;;;9.40;6.30;;;;;;;;;;4927070;29;20235;-61
2022/03/21 01:01:33;;;;;;;10.57;5.93;;;;;;;;;;4924368;29;20231;-61
2022/03/21 01:04:00;;;;;;;10.63;5.97;;;;;;;;;;4926624;29;20302;-61
2022/03/21 01:06:27;;;;;;;10.00;6.40;;;;;;;;;;4926961;29;20223;-61
2022/03/21 01:08:54;;;;;;;10.77;6.50;;;;;;;;;;4926215;29;20851;-61
2022/03/21 01:11:22;;;;;;;13.07;7.03;;;;;;;;;;4926574;29;20253;-61
2022/03/21 01:13:50;;;;;;;9.40;5.90;;;;;;;;;;4926725;29;20208;-61
2022/03/21 01:16:17;;;;;;;9.13;6.00;;;;;;;;;;4926921;29;20211;-61
2022/03/21 01:18:44;;;;;;;11.83;5.33;;;;;;;;;;4918275;29;20824;-61
2022/03/21 01:21:12;;;;;;;13.13;7.93;;;;;;;;;;4926190;29;20212;-60
2022/03/21 01:23:39;;;;;;;10.83;6.03;;;;;;;;;;4926718;29;20749;-62
2022/03/21 01:26:06;;;;;;;12.23;7.10;;;;;;;;;;4927265;29;20220;-62
2022/03/21 01:28:34;;;;;;;11.17;6.57;;;;;;;;;;4926526;29;20206;-61
2022/03/21 01:31:01;;;;;;;12.33;6.47;;;;;;;;;;4927134;29;20243;-62
2022/03/21 01:33:30;;;;;;;9.47;5.90;;;;;;;;;;4921261;29;20601;-61
2022/03/21 01:35:57;;;;;;;6.70;5.00;;;;;;;;;;4926265;29;20291;-62
2022/03/21 01:38:24;;;;;;;8.17;4.90;;;;;;;;;;4925418;29;20299;-61
2022/03/21 01:40:51;;;;;;;12.53;6.00;;;;;;;;;;4926375;29;20215;-61
2022/03/21 01:43:18;;;;;;;11.50;6.27;;;;;;;;;;4924837;29;20251;-61
2022/03/21 01:45:47;;;;;;;7.33;5.27;;;;;;;;;;4925906;29;20216;-63
2022/03/21 01:48:14;;;;;;;11.13;5.70;;;;;;;;;;4925979;29;20647;-62
2022/03/21 01:50:43;;;;;;;6.30;4.80;;;;;;;;;;4926375;29;20216;-63
2022/03/21 01:55:56;;;;;;;5.43;4.70;;;;;;;;;;4926190;29;20354;-62
2022/03/21 01:58:24;;;;;;;6.80;4.60;;;;;;;;;;4925873;29;20235;-62
2022/03/21 02:00:53;;;;;;;6.03;4.17;;;;;;;;;;4925207;29;20231;-62
2022/03/21 02:03:21;;;;;;;5.30;3.93;;;;;;;;;;4925738;29;20719;-63
2022/03/21 02:05:48;;;;;;;5.50;4.43;;;;;;;;;;4926514;29;20230;-62
2022/03/21 02:08:17;;;;;;;5.87;4.40;;;;;;;;;;4925680;29;20666;-63
2022/03/21 02:10:44;;;;;;;11.20;4.93;;;;;;;;;;4925806;29;20655;-63
2022/03/21 02:13:11;;;;;;;6.23;4.90;;;;;;;;;;4913903;29;20216;-64
2022/03/21 02:15:38;;;;;;;6.80;4.23;;;;;;;;;;4927272;29;20588;-62
2022/03/21 02:18:07;;;;;;;8.80;4.93;;;;;;;;;;4928576;29;20242;-62
2022/03/21 02:20:36;;;;;;;7.10;4.70;;;;;;;;;;4929243;29;20211;-63
2022/03/21 02:23:07;;;;;;;6.80;4.10;;;;;;;;;;4928968;29;20715;-63
2022/03/21 02:25:36;;;;;;;5.10;4.00;;;;;;;;;;4928980;29;20215;-62
2022/03/21 02:28:04;;;;;;;8.17;5.47;;;;;;;;;;4929827;29;20212;-63
2022/03/21 02:30:32;;;;;;;7.27;4.53;;;;;;;;;;4929586;29;20298;-62
2022/03/21 02:33:01;;;;;;;6.43;4.53;;;;;;;;;;4929471;29;20733;-63
2022/03/21 02:35:29;;;;;;;5.87;4.10;;;;;;;;;;4929336;29;20283;-62
2022/03/21 02:37:57;;;;;;;7.30;4.50;;;;;;;;;;4929215;29;20227;-62
2022/03/21 02:40:24;;;;;;;6.83;4.17;;;;;;;;;;4929073;29;20703;-63
2022/03/21 02:42:53;;;;;;;5.70;3.83;;;;;;;;;;4925157;29;20212;-62
2022/03/21 02:45:20;;;;;;;6.90;4.53;;;;;;;;;;4929729;29;20215;-62
2022/03/21 02:47:47;;;;;;;5.47;3.80;;;;;;;;;;4929028;29;20852;-62
2022/03/21 02:50:15;;;;;;;9.10;4.50;;;;;;;;;;4929482;29;20222;-62
2022/03/21 02:52:43;;;;;;;11.40;6.87;;;;;;;;;;4929180;29;20773;-62
2022/03/21 02:55:10;;;;;;;13.47;6.13;;;;;;;;;;4929113;29;20616;-62
2022/03/21 02:57:37;;;;;;;11.37;6.20;;;;;;;;;;4928333;29;20210;-62
2022/03/21 03:00:06;;;;;;;25.23;12.23;;;;;;;;;;4929467;29;20235;-62
2022/03/21 03:02:33;;;;;;;19.90;11.00;;;;;;;;;;4929305;29;20215;-62
2022/03/21 03:05:00;;;;;;;13.50;8.17;;;;;;;;;;4928553;29;20211;-61
2022/03/21 03:07:27;;;;;;;14.60;8.07;;;;;;;;;;4929126;29;20643;-62
2022/03/21 03:09:54;;;;;;;15.70;8.07;;;;;;;;;;4928692;29;20215;-62
2022/03/21 03:12:21;;;;;;;10.90;7.20;;;;;;;;;;4928760;29;20216;-61
2022/03/21 03:14:49;;;;;;;10.50;6.67;;;;;;;;;;4928983;29;20208;-62
2022/03/21 03:17:17;;;;;;;13.10;7.00;;;;;;;;;;4928421;29;20849;-62
2022/03/21 03:19:44;;;;;;;8.93;6.10;;;;;;;;;;4928597;29;20765;-62
2022/03/21 03:22:12;;;;;;;10.97;5.13;;;;;;;;;;4928365;29;20318;-62
2022/03/21 03:24:39;;;;;;;7.20;4.33;;;;;;;;;;4929309;29;20223;-62
2022/03/21 03:27:06;;;;;;;12.03;5.53;;;;;;;;;;4926269;29;20277;-62
2022/03/21 03:29:33;;;;;;;5.87;4.63;;;;;;;;;;4924572;29;20742;-60
2022/03/21 03:32:03;;;;;;;11.00;4.77;;;;;;;;;;4921147;29;20294;-60
2022/03/21 03:34:32;;;;;;;5.20;4.07;;;;;;;;;;4922345;29;20228;-63
2022/03/21 03:36:59;;;;;;;7.13;4.57;;;;;;;;;;4920762;29;20216;-63
2022/03/21 03:39:26;;;;;;;8.10;4.27;;;;;;;;;;4925046;29;20235;-61
2022/03/21 03:41:53;;;;;;;6.90;4.10;;;;;;;;;;4922857;29;20210;-63
2022/03/21 03:44:22;;;;;;;6.07;3.90;;;;;;;;;;4921481;29;20207;-63
2022/03/21 03:46:49;;;;;;;8.73;4.77;;;;;;;;;;4923415;29;20210;-60
2022/03/21 03:49:16;;;;;;;5.07;3.90;;;;;;;;;;4922687;29;20670;-60
2022/03/21 03:51:45;;;;;;;6.43;4.43;;;;;;;;;;4921178;29;20220;-60
2022/03/21 03:54:12;;;;;;;4.70;3.77;;;;;;;;;;4923326;29;20577;-63
2022/03/21 03:56:39;;;;;;;7.07;4.50;;;;;;;;;;4922722;29;20283;-61
2022/03/21 03:59:06;;;;;;;5.83;3.60;;;;;;;;;;4921724;29;20230;-61
2022/03/21 04:01:33;;;;;;;6.10;3.80;;;;;;;;;;4922057;29;20212;-63
2022/03/21 04:04:00;;;;;;;6.13;4.10;;;;;;;;;;4923522;29;20211;-60
2022/03/21 04:06:27;;;;;;;7.77;4.60;;;;;;;;;;4921824;29;20206;-61
2022/03/21 04:08:55;;;;;;;10.87;5.03;;;;;;;;;;4923705;29;20805;-61
2022/03/21 04:11:23;;;;;;;10.90;6.13;;;;;;;;;;4922233;29;20214;-61
2022/03/21 04:13:50;;;;;;;8.87;5.83;;;;;;;;;;4923280;29;20226;-62
2022/03/21 04:16:18;;;;;;;12.90;5.03;;;;;;;;;;4925101;29;20213;-62
2022/03/21 04:18:45;;;;;;;7.73;5.57;;;;;;;;;;4920197;29;20231;-61
2022/03/21 04:21:12;;;;;;;10.67;5.93;;;;;;;;;;4921364;29;20208;-62
2022/03/21 04:23:39;;;;;;;7.63;4.90;;;;;;;;;;4922651;29;20307;-62
2022/03/21 04:26:07;;;;;;;8.17;5.10;;;;;;;;;;4920618;29;20217;-62
2022/03/21 04:28:34;;;;;;;11.07;6.73;;;;;;;;;;4920684;29;20629;-62
2022/03/21 04:31:01;;;;;;;11.40;6.70;;;;;;;;;;4920858;29;20291;-62
2022/03/21 04:33:28;;;;;;;12.20;6.53;;;;;;;;;;4925208;29;20243;-62
2022/03/21 04:35:55;;;;;;;9.70;5.23;;;;;;;;;;4927382;29;20798;-62
2022/03/21 04:38:22;;;;;;;6.03;4.87;;;;;;;;;;4923981;29;20238;-62
2022/03/21 04:40:51;;;;;;;8.27;4.83;;;;;;;;;;4924880;29;20204;-62
2022/03/21 04:43:20;;;;;;;6.97;4.53;;;;;;;;;;4927625;29;20721;-62
2022/03/21 04:45:48;;;;;;;6.30;4.53;;;;;;;;;;4925290;29;20208;-62
2022/03/21 04:48:15;;;;;;;5.83;4.00;;;;;;;;;;4922581;29;20212;-62
2022/03/21 04:50:43;;;;;;;8.83;4.63;;;;;;;;;;4923438;29;20215;-62
2022/03/21 04:53:11;;;;;;;10.50;5.20;;;;;;;;;;4925777;29;20751;-62
2022/03/21 04:55:38;;;;;;;9.93;5.17;;;;;;;;;;4922366;29;20213;-62
2022/03/21 04:58:05;;;;;;;7.53;4.23;;;;;;;;;;4925016;29;20209;-63
2022/03/21 05:00:34;;;;;;;7.70;4.77;;;;;;;;;;4924557;29;20849;-62
2022/03/21 05:03:04;;;;;;;4.73;4.27;;;;;;;;;;4925308;29;20282;-62
2022/03/21 05:05:31;;;;;;;8.10;4.50;;;;;;;;;;4930627;29;20222;-62
2022/03/21 05:07:58;;;;;;;8.00;4.30;;;;;;;;;;4932177;29;20215;-62
2022/03/21 05:10:25;;;;;;;7.90;4.03;;;;;;;;;;4931579;29;20208;-62
2022/03/21 05:12:52;;;;;;;9.07;4.53;;;;;;;;;;4931601;29;20225;-63
2022/03/21 05:15:19;;;;;;;7.47;4.80;;;;;;;;;;4930941;29;20208;-62
2022/03/21 05:17:48;;;;;;;6.83;4.07;;;;;;;;;;4929911;29;20262;-63
2022/03/21 05:20:18;;;;;;;8.40;4.43;;;;;;;;;;4931743;29;20356;-63
2022/03/21 05:30:57;;;;;;;7.63;4.80;;;;;;;;;;4931910;29;20225;-62
2022/03/21 05:31:03;;;;;;;6.97;4.23;;;;;;;;;;4931996;29;20286;-63
2022/03/21 05:36:17;;;;;;;5.23;4.33;;;;;;;;;;4931569;29;20215;-62
2022/03/21 05:38:44;;;;;;;6.20;4.40;;;;;;;;;;4930896;29;20587;-62
2022/03/21 05:41:12;;;;;;;11.97;4.60;;;;;;;;;;4932028;29;20215;-62
2022/03/21 05:43:39;;;;;;;5.87;3.97;;;;;;;;;;4930920;29;20212;-62
2022/03/21 05:46:06;;;;;;;5.73;3.40;;;;;;;;;;4923807;29;20276;-62
2022/03/21 05:51:22;;;;;;;7.80;4.80;;;;;;;;;;4928940;29;20290;-62
2022/03/21 05:53:49;;;;;;;4.60;3.87;;;;;;;;;;4935326;29;20238;-62
2022/03/21 05:56:17;;;;;;;6.47;4.77;;;;;;;;;;4934376;29;20207;-61
2022/03/21 05:58:44;;;;;;;8.53;4.83;;;;;;;;;;4932979;29;20581;-61
2022/03/21 06:01:12;;;;;;;5.37;4.00;;;;;;;;;;4933574;29;20352;-61
2022/03/21 06:03:40;;;;;;;6.23;4.17;;;;;;;;;;4934662;29;20561;-61
2022/03/21 06:06:09;;;;;;;6.30;4.33;;;;;;;;;;4934074;29;20221;-61
2022/03/21 06:08:36;;;;;;;6.83;4.57;;;;;;;;;;4932964;29;20227;-61
2022/03/21 06:11:08;;;;;;;8.60;4.40;;;;;;;;;;4934270;29;20217;-62
2022/03/21 06:13:35;;;;;;;6.37;3.93;;;;;;;;;;4930847;29;20312;-61
2022/03/21 06:16:03;;;;;;;5.77;4.17;;;;;;;;;;4934116;29;20218;-62
2022/03/21 06:18:31;;;;;;;7.37;4.30;;;;;;;;;;4934357;29;20270;-60
2022/03/21 06:20:59;;;;;;;4.73;4.30;;;;;;;;;;4933957;29;20295;-61
2022/03/21 06:26:30;;;;;;;6.40;4.30;;;;;;;;;;4927133;29;20248;-61
2022/03/21 06:28:57;;;;;;;4.63;3.77;;;;;;;;;;4933450;29;20206;-63
2022/03/21 06:31:24;;;;;;;4.50;4.10;;;;;;;;;;4934167;29;20220;-61
2022/03/21 06:33:51;;;;;;;5.17;4.07;;;;;;;;;;4933502;29;20254;-61
2022/03/21 06:36:19;;;;;;;8.30;4.37;;;;;;;;;;4933570;29;20219;-62
2022/03/21 06:38:46;;;;;;;9.63;5.47;;;;;;;;;;4933868;29;20637;-62
2022/03/21 06:41:16;;;;;;;10.13;5.20;;;;;;;;;;4933817;29;20221;-62
2022/03/21 06:43:43;;;;;;;8.33;5.10;;;;;;;;;;4932080;29;20208;-61
2022/03/21 06:46:10;;;;;;;7.20;4.30;;;;;;;;;;4933298;29;20247;-60
2022/03/21 06:48:37;;;;;;;7.33;4.60;;;;;;;;;;4932948;29;20223;-61
2022/03/21 06:51:04;;;;;;;7.77;4.50;;;;;;;;;;4932361;29;20701;-62
2022/03/21 06:53:33;;;;;;;6.03;4.70;;;;;;;;;;4933378;29;20274;-62
2022/03/21 06:56:00;;;;;;;9.37;5.17;;;;;;;;;;4933251;29;20203;-62
2022/03/21 06:58:27;;;;;;;10.27;4.83;;;;;;;;;;4933221;29;20290;-61
2022/03/21 07:00:54;;;;;;;6.83;4.77;;;;;;;;;;4932974;29;20240;-62
2022/03/21 07:03:23;;;;;;;7.03;5.40;;;;;;;;;;4933158;29;20231;-62
2022/03/21 07:05:50;;;;;;;9.03;5.23;;;;;;;;;;4914469;29;20230;-61
2022/03/21 07:08:18;;;;;;;6.73;4.07;;;;;;;;;;4929630;29;20267;-62
2022/03/21 07:10:47;;;;;;;6.33;4.30;;;;;;;;;;4933188;29;20333;-62
2022/03/21 07:13:14;;;;;;;5.80;4.23;;;;;;;;;;4932655;29;20295;-62
2022/03/21 07:15:41;;;;;;;7.00;4.17;;;;;;;;;;4933209;29;20223;-61
2022/03/21 07:18:09;;;;;;;8.13;5.07;;;;;;;;;;4932615;29;20215;-62
2022/03/21 07:20:37;;;;;;;4.87;4.17;;;;;;;;;;4931948;29;20236;-62
2022/03/21 07:23:04;;;;;;;7.70;4.17;;;;;;;;;;4932980;29;20207;-62
2022/03/21 07:25:31;;;;;;;7.40;4.60;;;;;;;;;;4932840;29;20219;-61
2022/03/21 07:28:00;;;;;;;7.90;5.07;;;;;;;;;;4932214;29;20706;-61
2022/03/21 07:30:27;;;;;;;6.03;4.30;;;;;;;;;;4932532;29;20236;-61
2022/03/21 07:32:54;;;;;;;7.17;4.37;;;;;;;;;;4922825;29;20209;-62
2022/03/21 07:35:21;;;;;;;7.83;4.67;;;;;;;;;;4930450;29;20218;-62
2022/03/21 07:37:50;;;;;;;5.33;4.20;;;;;;;;;;4932541;29;20215;-62
2022/03/21 07:40:18;;;;;;;7.53;5.37;;;;;;;;;;4931865;29;20231;-61
2022/03/21 07:42:46;;;;;;;7.57;5.10;;;;;;;;;;4929702;29;20278;-62
2022/03/21 07:48:00;;;;;;;5.37;3.93;;;;;;;;;;4917715;29;20223;-61
2022/03/21 07:50:27;;;;;;;6.03;3.57;;;;;;;;;;4932097;29;20263;-62
2022/03/21 07:52:55;;;;;;;6.37;4.87;;;;;;;;;;4932178;29;20216;-62
2022/03/21 07:55:23;;;;;;;5.00;4.10;;;;;;;;;;4932065;29;20231;-61
2022/03/21 07:57:50;;;;;;;5.60;3.97;;;;;;;;;;4931982;29;20274;-62
2022/03/21 08:00:18;;;;;;;6.53;4.60;;;;;;;;;;4931319;29;20239;-62
2022/03/21 08:02:45;;;;;;;7.57;4.60;;;;;;;;;;4932337;29;20212;-62
2022/03/21 08:05:14;;;;;;;5.43;3.83;;;;;;;;;;4932009;29;20217;-61
2022/03/21 08:07:41;;;;;;;4.83;3.77;;;;;;;;;;4931948;29;20651;-61
2022/03/21 08:10:09;;;;;;;4.97;4.33;;;;;;;;;;4930811;29;20208;-62
2022/03/21 08:12:36;;;;;;;7.13;4.27;;;;;;;;;;4931286;29;20624;-61
2022/03/21 08:15:04;;;;;;;7.90;4.70;;;;;;;;;;4931272;29;20311;-61
2022/03/21 08:17:33;;;;;;;8.43;4.93;;;;;;;;;;4929368;29;20316;-61
2022/03/21 08:20:00;;;;;;;6.33;4.90;;;;;;;;;;4925776;29;20227;-61
2022/03/21 08:22:27;;;;;;;5.90;3.70;;;;;;;;;;4923693;29;20736;-61
2022/03/21 08:24:54;;;;;;;6.67;2.97;;;;;;;;;;4929182;29;20219;-60
2022/03/21 08:27:22;;;;;;;7.37;5.27;;;;;;;;;;4920706;29;20204;-60
2022/03/21 08:29:49;;;;;;;7.00;5.03;;;;;;;;;;4926072;29;20224;-60
2022/03/21 08:32:16;;;;;;;5.93;4.90;;;;;;;;;;4937945;29;20211;-61
2022/03/21 08:34:44;;;;;;;9.67;4.57;;;;;;;;;;4937891;29;20577;-60
2022/03/21 08:37:11;;;;;;;7.80;4.33;;;;;;;;;;4929985;29;20278;-61
2022/03/21 08:39:38;;;;;;;5.17;4.20;;;;;;;;;;4930705;29;20765;-60
2022/03/21 08:42:06;;;;;;;7.83;5.33;;;;;;;;;;4925232;29;20208;-60
2022/03/21 08:44:33;;;;;;;9.40;5.20;;;;;;;;;;4930163;29;20683;-60
2022/03/21 08:47:00;;;;;;;7.47;4.80;;;;;;;;;;4915995;29;20208;-60
2022/03/21 08:49:27;;;;;;;7.40;4.60;;;;;;;;;;4928878;29;20275;-60
2022/03/21 08:51:56;;;;;;;7.80;4.03;;;;;;;;;;4930253;29;20798;-60
2022/03/21 08:54:23;;;;;;;8.53;5.10;;;;;;;;;;4928809;29;20613;-60
2022/03/21 08:56:50;;;;;;;8.57;4.97;;;;;;;;;;4930011;29;20674;-59
2022/03/21 08:59:17;;;;;;;8.57;5.90;;;;;;;;;;4919065;29;20208;-60
2022/03/21 09:01:44;;;;;;;8.97;5.10;;;;;;;;;;4928767;29;20689;-60
2022/03/21 09:04:12;;;;;;;7.50;5.30;;;;;;;;;;4931036;29;20282;-60
2022/03/21 09:06:39;;;;;;;12.17;5.00;;;;;;;;;;4930835;29;20212;-59
2022/03/21 09:09:08;;;;;;;8.50;5.20;;;;;;;;;;4930533;29;20215;-59
2022/03/21 09:11:35;;;;;;;8.30;4.97;;;;;;;;;;4929244;29;20211;-60
2022/03/21 09:14:03;;;;;;;7.70;5.50;;;;;;;;;;4930120;29;20223;-63
2022/03/21 09:16:30;;;;;;;11.77;5.80;;;;;;;;;;4930410;29;20215;-60
2022/03/21 09:18:57;;;;;;;10.27;6.00;;;;;;;;;;4930629;29;20287;-60
2022/03/21 09:21:24;;;;;;;8.27;5.47;;;;;;;;;;4929359;29;20223;-60
2022/03/21 09:23:51;;;;;;;11.00;6.13;;;;;;;;;;4930890;29;20222;-60
2022/03/21 09:26:21;;;;;;;7.33;5.50;;;;;;;;;;4932945;29;20223;-60
2022/03/21 09:28:49;;;;;;;7.87;5.77;;;;;;;;;;4933989;29;20207;-60
2022/03/21 09:31:16;;;;;;;10.27;5.53;;;;;;;;;;4932631;29;20208;-60
2022/03/21 09:33:43;;;;;;;7.53;5.17;;;;;;;;;;4916618;29;20312;-72
2022/03/21 09:36:11;;;;;;;8.33;5.23;;;;;;;;;;4925693;29;20268;-60
2022/03/21 09:38:38;;;;;;;8.93;5.50;;;;;;;;;;4932875;29;20274;-60
2022/03/21 09:41:05;;;;;;;8.13;5.73;;;;;;;;;;4934144;29;20231;-60
2022/03/21 09:43:34;;;;;;;9.67;5.40;;;;;;;;;;4927739;29;20212;-60
2022/03/21 09:46:01;;;;;;;7.97;6.13;;;;;;;;;;4931933;29;20218;-60
2022/03/21 09:48:28;;;;;;;7.37;5.53;;;;;;;;;;4928583;29;20231;-60
2022/03/21 09:50:56;;;;;;;7.53;5.43;;;;;;;;;;4915143;29;20200;-59
2022/03/21 09:53:24;;;;;;;8.37;5.80;;;;;;;;;;4929752;29;20311;-59
2022/03/21 09:55:51;;;;;;;7.23;5.70;;;;;;;;;;4934101;29;20248;-59
2022/03/21 09:58:20;;;;;;;7.77;5.73;;;;;;;;;;4933716;29;20786;-59
2022/03/21 10:00:49;;;;;;;6.03;4.83;;;;;;;;;;4933679;29;20227;-59
2022/03/21 10:03:16;;;;;;;9.70;5.68;;;;;;;;;;4933952;29;20216;-59
2022/03/21 10:05:44;;;;;;;7.23;5.47;;;;;;;;;;4927838;29;20219;-59
2022/03/21 10:08:16;;;;;;;8.57;5.63;;;;;;;;;;4934563;29;20216;-60
2022/03/21 10:10:52;;;;;;;8.48;5.47;;;;;;;;;;4934393;29;20675;-61
2022/03/21 10:13:19;;;;;;;7.60;6.00;;;;;;;;;;4932794;29;20208;-60
2022/03/21 10:15:46;;;;;;;10.63;5.97;;;;;;;;;;4933662;29;20208;-60
2022/03/21 10:18:14;;;;;;;7.25;5.65;;;;;;;;;;4934390;29;20208;-60
2022/03/21 10:20:41;;;;;;;9.38;5.82;;;;;;;;;;4934346;29;20239;-60
2022/03/21 10:23:19;;;;;;;8.27;6.28;;;;;;;;;;4933920;29;20270;-60
2022/03/21 10:25:46;;;;;;;11.00;5.80;;;;;;;;;;4932736;29;20298;-61
2022/03/21 10:28:32;;;;;;;9.05;6.38;;;;;;;;;;4931332;29;20578;-61
2022/03/21 10:30:59;;;;;;;8.15;6.00;;;;;;;;;;4933483;29;20232;-59
2022/03/21 10:33:27;;;;;;;9.48;5.50;;;;;;;;;;4932054;29;20243;-59
2022/03/21 10:35:54;;;;;;;10.05;6.55;;;;;;;;;;4933081;29;20239;-58
2022/03/21 10:38:31;;;;;;;9.40;6.45;;;;;;;;;;4927472;29;20219;-58
2022/03/21 10:40:58;;;;;;;7.97;5.82;;;;;;;;;;4927488;29;20234;-60
2022/03/21 10:43:25;;;;;;;8.43;6.00;;;;;;;;;;4933225;29;20283;-59
2022/03/21 10:45:54;;;;;;;9.25;6.40;;;;;;;;;;4929836;29;20683;-60
2022/03/21 10:48:22;;;;;;;11.93;6.22;;;;;;;;;;4932138;29;20326;-60
2022/03/21 10:50:51;;;;;;;9.45;6.32;;;;;;;;;;4932458;29;20207;-60
2022/03/21 10:53:19;;;;;;;7.28;5.78;;;;;;;;;;4933253;29;20271;-60
2022/03/21 10:55:47;;;;;;;9.63;6.00;;;;;;;;;;4933117;29;20207;-61
2022/03/21 10:58:17;;;;;;;8.15;5.95;;;;;;;;;;4934220;29;20331;-61
2022/03/21 11:00:44;;;;;;;9.20;6.30;;;;;;;;;;4932910;29;20228;-60
2022/03/21 11:03:15;;;;;;;9.05;6.55;;;;;;;;;;4926426;29;20219;-61
2022/03/21 11:05:43;;;;;;;9.35;6.18;;;;;;;;;;4931866;29;20231;-61
2022/03/21 11:08:13;;;;;;;7.75;6.18;;;;;;;;;;4931444;29;20938;-61
2022/03/21 11:10:41;;;;;;;7.88;5.85;;;;;;;;;;4932345;29;20223;-59
2022/03/21 11:13:08;;;;;;;9.27;6.57;;;;;;;;;;4932815;29;20215;-59
2022/03/21 11:15:37;;;;;;;9.10;6.40;;;;;;;;;;4932840;29;20694;-59
2022/03/21 11:18:04;;;;;;;8.60;6.55;;;;;;;;;;4933151;29;20722;-59
2022/03/21 11:20:32;;;;;;;9.35;6.30;;;;;;;;;;4933226;29;20240;-61
2022/03/21 11:23:00;;;;;;;7.32;5.53;;;;;;;;;;4933042;29;20349;-60
2022/03/21 11:25:31;;;;;;;8.75;6.10;;;;;;;;;;4931952;29;20690;-60
2022/03/21 11:28:16;;;;;;;9.65;6.85;;;;;;;;;;4928020;29;20686;-60
2022/03/21 11:30:50;;;;;;;8.50;6.20;;;;;;;;;;4917483;29;20233;-59
2022/03/21 11:33:21;;;;;;;8.02;6.80;;;;;;;;;;4913746;29;20255;-60
2022/03/21 11:35:52;;;;;;;8.60;6.20;;;;;;;;;;4926883;29;20267;-61
2022/03/21 11:38:22;;;;;;;8.10;6.45;;;;;;;;;;4928855;29;20220;-61
2022/03/21 11:40:51;;;;;;;10.45;7.15;;;;;;;;;;4927882;29;20374;-59
2022/03/21 11:43:30;;;;;;;11.93;7.15;;;;;;;;;;4925063;29;20215;-62
2022/03/21 11:45:57;;;;;;;9.05;6.72;;;;;;;;;;4928493;29;20212;-61
2022/03/21 11:48:37;;;;;;;13.13;6.88;;;;;;;;;;4927668;29;20219;-60
2022/03/21 11:51:37;;;;;;;9.73;6.60;;;;;;;;;;4926585;29;20211;-61
2022/03/21 11:54:06;;;;;;;8.18;6.53;;;;;;;;;;4850285;29;20222;-60
2022/03/21 11:56:51;;;;;;;13.93;6.65;;;;;;;;;;4850367;29;20246;-61
2022/03/21 11:59:33;;;;;;;9.15;6.57;;;;;;;;;;4895660;29;20822;-61
2022/03/21 12:02:03;;;;;;;9.52;6.60;;;;;;;;;;4928057;29;20231;-60
2022/03/21 12:04:30;;;;;;;10.32;6.90;;;;;;;;;;4928296;29;20322;-60
2022/03/21 12:06:59;;;;;;;8.88;6.72;;;;;;;;;;4928399;29;20227;-61
2022/03/21 12:09:41;;;;;;;8.70;6.07;;;;;;;;;;5079731;28;20617;-61
2022/03/21 12:12:10;;;;;;;7.80;6.35;;;;;;;;;;5079549;28;20567;-62
2022/03/21 12:14:40;;;;;;;14.02;6.90;;;;;;;;;;5081432;28;20868;-62
2022/03/21 12:17:38;;;;;;;9.30;6.10;;;;;;;;;;5082238;28;20330;-62
2022/03/21 12:20:10;;;;;;;12.30;6.78;;;;;;;;;;5081795;28;20233;-61
2022/03/21 12:22:39;;;;;;;8.95;6.15;;;;;;;;;;5081788;28;20301;-62
2022/03/21 12:25:08;;;;;;;8.90;6.65;;;;;;;;;;5081328;28;20580;-62
2022/03/21 12:27:37;;;;;;;8.50;5.93;;;;;;;;;;5081400;28;20226;-62
2022/03/21 12:30:23;;;;;;;7.25;6.13;;;;;;;;;;5081594;28;20252;-62
2022/03/21 12:32:51;;;;;;;11.35;6.53;;;;;;;;;;5081891;28;20214;-62
2022/03/21 12:35:39;;;;;;;8.02;5.97;;;;;;;;;;5078404;28;20738;-60
2022/03/21 12:38:09;;;;;;;10.80;6.72;;;;;;;;;;5061409;28;20257;-60
2022/03/21 12:40:40;;;;;;;8.15;6.40;;;;;;;;;;5061568;28;20230;-60
2022/03/21 12:43:07;;;;;;;11.18;6.55;;;;;;;;;;5078467;28;20214;-60
2022/03/21 12:45:34;;;;;;;8.85;6.55;;;;;;;;;;5078200;28;20687;-62
2022/03/21 12:48:04;;;;;;;11.18;6.40;;;;;;;;;;5061221;28;20280;-60
2022/03/21 12:50:31;;;;;;;9.88;6.35;;;;;;;;;;5063278;28;20222;-60
2022/03/21 12:52:59;;;;;;;11.85;7.40;;;;;;;;;;5081515;28;20268;-60
2022/03/21 12:55:27;;;;;;;8.90;6.05;;;;;;;;;;5081124;28;20210;-60
2022/03/21 12:57:57;;;;;;;9.63;6.35;;;;;;;;;;5061114;28;20265;-61
2022/03/21 13:00:26;;;;;;;8.50;6.50;;;;;;;;;;5060753;28;20215;-60
2022/03/21 13:02:55;;;;;;;9.55;6.47;;;;;;;;;;5061006;28;20270;-61
2022/03/21 13:10:52;;;;;;;10.38;6.38;;;;;;;;;;5080498;28;20695;-60
2022/03/21 13:13:21;;;;;;;9.95;5.90;;;;;;;;;;5073326;28;20207;-63
2022/03/21 13:15:48;;;;;;;8.70;6.43;;;;;;;;;;5060881;28;20222;-61
2022/03/21 13:18:15;;;;;;;8.50;5.85;;;;;;;;;;5061807;28;20261;-63
2022/03/21 13:20:46;;;;;;;7.32;5.60;;;;;;;;;;5047956;28;20768;-60
2022/03/21 13:23:18;;;;;;;7.88;5.55;;;;;;;;;;5048426;28;20235;-60
2022/03/21 13:25:45;;;;;;;8.30;5.82;;;;;;;;;;5067396;28;20681;-60
2022/03/21 13:28:14;;;;;;;8.85;6.45;;;;;;;;;;5052029;28;20242;-61
2022/03/21 13:30:59;;;;;;;8.38;5.80;;;;;;;;;;5046775;28;20326;-61
2022/03/21 13:33:27;;;;;;;7.95;5.63;;;;;;;;;;5047356;28;20208;-62
2022/03/21 13:35:55;;;;;;;10.27;6.32;;;;;;;;;;5066952;28;20217;-61
2022/03/21 13:38:22;;;;;;;8.38;5.20;;;;;;;;;;5058992;28;20769;-61
2022/03/21 13:40:49;;;;;;;12.65;5.95;;;;;;;;;;5057779;28;20232;-61
2022/03/21 13:43:17;;;;;;;7.35;5.55;;;;;;;;;;5065406;28;20214;-61
2022/03/21 13:45:44;;;;;;;7.45;5.75;;;;;;;;;;5066754;28;20268;-61
2022/03/21 13:48:12;;;;;;;8.80;5.72;;;;;;;;;;5066382;28;20231;-61
2022/03/21 13:50:39;;;;;;;8.70;5.93;;;;;;;;;;5066494;28;20215;-61
2022/03/21 13:53:22;;;;;;;8.63;5.60;;;;;;;;;;5066814;28;20230;-61
2022/03/21 13:55:51;;;;;;;8.90;5.88;;;;;;;;;;5046904;28;20578;-62
2022/03/21 13:58:25;;;;;;;10.27;5.88;;;;;;;;;;5046744;28;20239;-62
2022/03/21 14:00:52;;;;;;;8.25;5.88;;;;;;;;;;5066469;28;20755;-61
2022/03/21 14:03:32;;;;;;;6.88;5.43;;;;;;;;;;5054370;28;20322;-61
2022/03/21 14:05:59;;;;;;;6.47;5.03;;;;;;;;;;5064136;28;20268;-61
2022/03/21 14:08:27;;;;;;;8.95;5.50;;;;;;;;;;5066135;28;20292;-61
2022/03/21 14:10:54;;;;;;;6.75;5.80;;;;;;;;;;5065836;28;20621;-61
2022/03/21 14:13:24;;;;;;;7.15;5.43;;;;;;;;;;5066066;28;20367;-61
2022/03/21 14:15:52;;;;;;;8.88;6.38;;;;;;;;;;5052119;28;20254;-60
2022/03/21 14:18:22;;;;;;;7.22;5.80;;;;;;;;;;5047675;28;20253;-60
2022/03/21 14:20:51;;;;;;;11.60;5.85;;;;;;;;;;5045794;28;20210;-60
2022/03/21 14:23:19;;;;;;;9.80;5.35;;;;;;;;;;5046699;28;20657;-60
2022/03/21 14:28:30;;;;;;;8.73;5.97;;;;;;;;;;5065855;28;20664;-61
2022/03/21 14:30:58;;;;;;;8.25;5.95;;;;;;;;;;5056381;28;20227;-61
2022/03/21 14:33:25;;;;;;;7.72;5.40;;;;;;;;;;5045083;28;20346;-61
2022/03/21 14:35:53;;;;;;;10.10;6.55;;;;;;;;;;5053540;28;20321;-60
2022/03/21 14:38:21;;;;;;;7.57;5.82;;;;;;;;;;5062777;28;20560;-60
2022/03/21 14:40:48;;;;;;;8.27;6.00;;;;;;;;;;5045386;28;20216;-60
2022/03/21 14:43:15;;;;;;;7.53;6.30;;;;;;;;;;5060700;28;20211;-61
2022/03/21 14:45:42;;;;;;;8.20;6.05;;;;;;;;;;5053040;28;20551;-60
2022/03/21 14:48:10;;;;;;;9.43;6.38;;;;;;;;;;5062414;28;20211;-60
2022/03/21 14:50:37;;;;;;;9.40;5.72;;;;;;;;;;5062661;28;20207;-60
2022/03/21 14:53:05;;;;;;;16.25;6.03;;;;;;;;;;5053296;28;20269;-61
2022/03/21 14:55:33;;;;;;;7.47;5.88;;;;;;;;;;5045020;28;20285;-60
2022/03/21 14:58:00;;;;;;;8.15;6.28;;;;;;;;;;5044756;28;20215;-61
2022/03/21 15:00:27;;;;;;;8.35;5.82;;;;;;;;;;5044821;28;20303;-60
2022/03/21 15:02:54;;;;;;;9.80;6.45;;;;;;;;;;5050192;28;20203;-61
2022/03/21 15:05:21;;;;;;;8.30;6.25;;;;;;;;;;5064853;28;20223;-61
2022/03/21 15:07:48;;;;;;;11.48;6.97;;;;;;;;;;5049431;28;20243;-59
2022/03/21 15:10:24;;;;;;;11.13;6.38;;;;;;;;;;5062725;28;20616;-58
2022/03/21 15:12:51;;;;;;;8.95;6.43;;;;;;;;;;5057005;28;20298;-60
2022/03/21 15:15:19;;;;;;;9.15;6.50;;;;;;;;;;5055989;28;20692;-59